罗盘
风向 的 风向 270°
风: 8 kt, 3 beaufort

添加一条跑道以查看侧风和逆风信息。

添置 跑道
0 1.000 2.000 3.000 4.000 5.000
FEW 1.700 ft
SCT 2.300 ft
BKN 3.600 ft
METAR LFMK 300400Z AUTO 27008KT 9999 FEW017 SCT023 BKN036 17/16 Q1013 TEMPO BKN013

METAR Ulmodrome de Limoux

Ulmodrome de Limoux是Limoux,法国中的小机场。

这份报告是针对2022年6月30日 6:00 上午, 当地时间在Carcassonne Airport进行的。

机场观察

风向为270°,速度为8 kt。

可见度为6¼ mi 或者更多。

有几云在1.700 ft的高度, 疏云,零星散落的云朵在2.300 ft的高度 和 碎云在3.600 ft的高度。 破损或更高的上限为3.600 ft。

温度和风寒是63 °F。 露点为61 °F,相对湿度为94%。 海平面上的气压为29,91 inHg (QNH)。

发展趋势

  • 暂时的

    可变方向的风很小或没有。 碎云在1.300 ft的高度.

白天

今天,太阳从6:15 上午升起,在9:34 下午降落。 这适用于Ulmodrome de Limoux,世界夏令时可能有所不同。 当地时间与世界标准时间之间的时差为+2 小时。 夏令时目前正在进行中。

公司介绍

我们没有关于这个机场的公司信息。

体会

到Vliegles.nl去找飞行课程,跳伞和其他飞行体验。 浏览页面,了解Ulmodrome de Limoux附近所有可用的活动。 你也可以使用搜索功能来寻找你所在地附近的特定飞行课程、跳伞或其他飞行体验。

您会帮助我们保持Metar-Taf.com正常运行吗?
您的贡献有助于网站的进一步开发并支付费用。

没有更多广告

您是捐款5美元还是更多?然后,我们将永远不会再向您展示广告,这是我们永恒的感谢!
捐赠前先登录

乌云

1.700 ft FEW 几云
2.300 ft SCT 疏云,零星散落的云朵
3.600 ft BKN 碎云
1.300 ft BKN 暂时的 碎云

温度 & 天气

温度 63 °F
露点 61 °F
相对湿度 94%
Kp-index 1  

公司介绍

新增公司

下载我们的应用程序

在您的手机和平板电脑上轻松访问所有航空天气。
有许多网站上没有的功能,如离线支持和个人机场列表。

Studio Eveline

Benalmádena
España

我们和第三方通过cookies跟踪您在我们网站上的上网行为。如果您继续,我们认为您同意我们的cookie政策。 了解更多